Time;durP1;ratioP1;P1;durP2;ratioP2;P2;SDS_P1;SDS_P2;PMS_P1;PMS_P2;Temp;Humidity;BMP_temperature;BMP_pressure;BME280_temperature;BME280_humidity;BME280_pressure;Samples;Min_cycle;Max_cycle;Signal;HPM_P1;HPM_P2
2024/02/28 00:02:17;;;;;;;13.17;10.70;;;;;;;;;;5009127;28;20262;-55
2024/02/28 00:04:43;;;;;;;13.97;10.77;;;;;;;;;;5014617;28;20247;-55
2024/02/28 00:07:09;;;;;;;14.83;10.73;;;;;;;;;;5025961;28;20988;-55
2024/02/28 00:09:35;;;;;;;12.07;9.70;;;;;;;;;;5025070;28;20185;-55
2024/02/28 00:12:01;;;;;;;17.53;10.77;;;;;;;;;;5021557;28;20174;-55
2024/02/28 00:14:27;;;;;;;12.90;10.33;;;;;;;;;;5024399;28;20174;-56
2024/02/28 00:16:53;;;;;;;12.27;9.33;;;;;;;;;;5018429;28;20253;-55
2024/02/28 00:19:20;;;;;;;12.37;9.80;;;;;;;;;;5021257;28;20226;-55
2024/02/28 00:21:46;;;;;;;12.50;10.33;;;;;;;;;;5024362;28;20178;-55
2024/02/28 00:24:12;;;;;;;13.00;10.23;;;;;;;;;;5029893;28;20630;-55
2024/02/28 00:26:41;;;;;;;13.63;10.20;;;;;;;;;;5024116;28;20271;-55
2024/02/28 00:29:07;;;;;;;13.87;10.10;;;;;;;;;;5022994;28;20179;-55
2024/02/28 00:31:33;;;;;;;13.33;9.80;;;;;;;;;;5023422;28;20273;-52
2024/02/28 00:33:59;;;;;;;14.13;10.93;;;;;;;;;;5019919;28;20186;-52
2024/02/28 00:36:25;;;;;;;15.97;10.37;;;;;;;;;;5024486;28;20186;-52
2024/02/28 00:38:51;;;;;;;15.00;10.50;;;;;;;;;;5028827;28;20166;-52
2024/02/28 00:41:17;;;;;;;13.77;10.60;;;;;;;;;;5019673;28;20224;-53
2024/02/28 00:43:43;;;;;;;15.17;11.03;;;;;;;;;;5028213;28;20587;-53
2024/02/28 00:46:11;;;;;;;14.23;10.20;;;;;;;;;;5025391;28;20206;-53
2024/02/28 00:48:38;;;;;;;14.13;10.97;;;;;;;;;;5026256;28;20212;-52
2024/02/28 00:51:05;;;;;;;14.47;10.17;;;;;;;;;;5022018;28;20641;-53
2024/02/28 00:53:31;;;;;;;14.23;11.37;;;;;;;;;;5028695;28;20385;-51
2024/02/28 00:55:57;;;;;;;13.17;10.37;;;;;;;;;;5027434;28;20170;-53
2024/02/28 00:58:23;;;;;;;16.33;11.77;;;;;;;;;;5018941;28;20244;-53
2024/02/28 01:00:49;;;;;;;15.87;10.60;;;;;;;;;;5015577;28;20178;-52
2024/02/28 01:03:15;;;;;;;13.40;10.37;;;;;;;;;;5020913;28;20186;-54
2024/02/28 01:05:41;;;;;;;14.17;11.43;;;;;;;;;;5018639;28;20518;-52
2024/02/28 01:08:07;;;;;;;14.50;10.70;;;;;;;;;;5019204;28;20625;-51
2024/02/28 01:10:34;;;;;;;14.73;10.63;;;;;;;;;;5025581;28;20306;-52
2024/02/28 01:13:00;;;;;;;17.63;11.03;;;;;;;;;;5025592;28;20242;-51
2024/02/28 01:15:26;;;;;;;13.63;10.23;;;;;;;;;;5020846;28;20185;-53
2024/02/28 01:17:52;;;;;;;12.53;10.13;;;;;;;;;;5022507;28;20167;-52
2024/02/28 01:20:18;;;;;;;14.63;10.97;;;;;;;;;;5016634;28;20221;-52
2024/02/28 01:22:44;;;;;;;14.47;10.63;;;;;;;;;;5012305;28;20193;-55
2024/02/28 01:25:10;;;;;;;14.53;11.13;;;;;;;;;;5016114;28;20261;-52
2024/02/28 01:27:36;;;;;;;13.87;10.80;;;;;;;;;;5016925;28;20670;-52
2024/02/28 01:30:03;;;;;;;13.83;10.77;;;;;;;;;;5027908;28;20256;-52
2024/02/28 01:32:30;;;;;;;15.03;11.20;;;;;;;;;;5028143;28;20170;-52
2024/02/28 01:34:56;;;;;;;15.10;10.77;;;;;;;;;;5017129;28;20706;-54
2024/02/28 01:37:22;;;;;;;16.53;11.37;;;;;;;;;;5015957;28;20274;-52
2024/02/28 01:39:48;;;;;;;15.57;10.87;;;;;;;;;;5024715;28;20178;-53
2024/02/28 01:42:15;;;;;;;16.93;12.20;;;;;;;;;;5029030;28;20302;-59
2024/02/28 01:44:43;;;;;;;14.80;10.93;;;;;;;;;;5018090;28;20489;-59
2024/02/28 01:47:10;;;;;;;14.27;11.10;;;;;;;;;;5024622;28;20224;-59
2024/02/28 01:49:36;;;;;;;15.33;11.80;;;;;;;;;;5024194;28;20162;-58
2024/02/28 01:52:03;;;;;;;17.00;12.57;;;;;;;;;;5017349;28;20174;-58
2024/02/28 01:54:30;;;;;;;15.03;11.00;;;;;;;;;;5017483;28;20169;-55
2024/02/28 01:56:56;;;;;;;15.80;10.83;;;;;;;;;;5025100;28;20257;-59
2024/02/28 01:59:23;;;;;;;16.50;11.90;;;;;;;;;;5022234;28;20202;-58
2024/02/28 02:01:50;;;;;;;15.30;11.27;;;;;;;;;;5024293;28;20177;-58
2024/02/28 02:04:16;;;;;;;16.47;11.50;;;;;;;;;;5021963;28;20186;-58
2024/02/28 02:06:42;;;;;;;18.23;12.23;;;;;;;;;;5015680;28;20646;-58
2024/02/28 02:09:09;;;;;;;16.53;11.73;;;;;;;;;;5027193;28;20213;-58
2024/02/28 02:11:35;;;;;;;17.70;12.17;;;;;;;;;;5023657;28;20248;-58
2024/02/28 02:14:01;;;;;;;17.73;12.20;;;;;;;;;;5021202;28;20170;-58
2024/02/28 02:16:27;;;;;;;17.83;12.20;;;;;;;;;;5022623;28;20174;-59
2024/02/28 02:18:53;;;;;;;14.87;11.13;;;;;;;;;;5023644;28;20320;-58
2024/02/28 02:21:22;;;;;;;16.70;11.40;;;;;;;;;;5018382;28;20178;-58
2024/02/28 02:23:48;;;;;;;16.83;11.97;;;;;;;;;;5025280;28;20544;-59
2024/02/28 02:26:15;;;;;;;16.83;11.40;;;;;;;;;;5026012;28;20565;-58
2024/02/28 02:28:41;;;;;;;18.47;12.53;;;;;;;;;;5024939;28;20288;-59
2024/02/28 02:31:07;;;;;;;14.27;10.70;;;;;;;;;;5028723;28;20268;-57
2024/02/28 02:33:33;;;;;;;19.57;13.17;;;;;;;;;;5028663;28;20262;-59
2024/02/28 02:35:59;;;;;;;17.73;11.73;;;;;;;;;;5025156;28;20909;-58
2024/02/28 02:38:25;;;;;;;15.13;10.40;;;;;;;;;;5021289;28;20269;-59
2024/02/28 02:40:51;;;;;;;15.97;12.37;;;;;;;;;;5025994;28;20178;-59
2024/02/28 02:43:18;;;;;;;14.73;10.77;;;;;;;;;;5025866;28;20194;-56
2024/02/28 02:45:44;;;;;;;15.83;12.37;;;;;;;;;;5023553;28;20185;-58
2024/02/28 02:48:10;;;;;;;19.73;11.53;;;;;;;;;;5020804;28;20194;-59
2024/02/28 02:50:36;;;;;;;15.83;12.00;;;;;;;;;;5022501;28;20178;-56
2024/02/28 02:53:05;;;;;;;16.20;11.03;;;;;;;;;;5023050;28;20175;-54
2024/02/28 02:55:31;;;;;;;15.50;11.67;;;;;;;;;;5019410;28;20909;-53
2024/02/28 02:57:57;;;;;;;16.63;11.53;;;;;;;;;;5019151;28;20185;-52
2024/02/28 03:00:23;;;;;;;14.80;11.70;;;;;;;;;;5018980;28;20707;-52
2024/02/28 03:02:49;;;;;;;20.10;13.43;;;;;;;;;;5014694;28;20277;-52
2024/02/28 03:05:15;;;;;;;15.10;11.43;;;;;;;;;;5021081;28;20166;-53
2024/02/28 03:07:41;;;;;;;16.87;11.80;;;;;;;;;;5027188;28;20213;-53
2024/02/28 03:10:08;;;;;;;15.10;11.17;;;;;;;;;;5017109;28;20309;-51
2024/02/28 03:12:35;;;;;;;16.77;12.17;;;;;;;;;;5016294;28;20588;-53
2024/02/28 03:15:01;;;;;;;15.00;11.30;;;;;;;;;;5020844;28;20162;-52
2024/02/28 03:17:27;;;;;;;16.17;12.33;;;;;;;;;;5026563;28;20602;-53
2024/02/28 03:19:53;;;;;;;15.50;11.33;;;;;;;;;;5021770;28;20230;-54
2024/02/28 03:22:19;;;;;;;18.93;13.00;;;;;;;;;;5026618;28;20289;-54
2024/02/28 03:24:45;;;;;;;16.40;11.60;;;;;;;;;;5022454;28;21025;-55
2024/02/28 03:27:11;;;;;;;18.40;12.90;;;;;;;;;;5025780;28;20182;-53
2024/02/28 03:29:37;;;;;;;18.17;12.87;;;;;;;;;;5026665;28;20173;-52
2024/02/28 03:32:03;;;;;;;19.27;13.50;;;;;;;;;;5022022;28;20174;-53
2024/02/28 03:34:29;;;;;;;21.77;13.37;;;;;;;;;;5019921;28;20177;-52
2024/02/28 03:36:56;;;;;;;18.00;12.37;;;;;;;;;;5026742;28;20190;-51
2024/02/28 03:39:22;;;;;;;19.17;13.43;;;;;;;;;;5021274;28;20243;-52
2024/02/28 03:41:48;;;;;;;19.17;12.20;;;;;;;;;;5015149;28;20185;-53
2024/02/28 03:44:14;;;;;;;20.67;12.73;;;;;;;;;;5015251;28;20171;-52
2024/02/28 03:46:40;;;;;;;19.83;13.33;;;;;;;;;;5016102;28;20642;-52
2024/02/28 03:49:06;;;;;;;21.10;13.83;;;;;;;;;;5024998;28;20174;-52
2024/02/28 03:51:32;;;;;;;19.67;13.17;;;;;;;;;;5019627;28;20185;-53
2024/02/28 03:53:58;;;;;;;22.07;14.13;;;;;;;;;;5024396;28;20258;-52
2024/02/28 03:56:24;;;;;;;21.63;13.13;;;;;;;;;;5028956;28;20243;-52
2024/02/28 03:58:51;;;;;;;21.80;13.73;;;;;;;;;;5030662;28;20170;-51
2024/02/28 04:01:17;;;;;;;22.73;15.13;;;;;;;;;;5029556;28;20170;-54
2024/02/28 04:03:43;;;;;;;22.63;14.80;;;;;;;;;;5021802;28;20610;-55
2024/02/28 04:06:09;;;;;;;24.63;14.63;;;;;;;;;;5020807;28;20196;-56
2024/02/28 04:08:35;;;;;;;27.20;15.97;;;;;;;;;;5028999;28;20225;-56
2024/02/28 04:11:01;;;;;;;24.53;14.90;;;;;;;;;;5029809;28;20166;-55
2024/02/28 04:13:27;;;;;;;27.60;16.00;;;;;;;;;;5025873;28;20229;-55
2024/02/28 04:15:53;;;;;;;27.93;17.63;;;;;;;;;;5032870;28;20166;-55
2024/02/28 04:18:19;;;;;;;30.13;18.50;;;;;;;;;;5021303;28;20190;-55
2024/02/28 04:20:45;;;;;;;25.63;17.07;;;;;;;;;;5030407;28;20185;-55
2024/02/28 04:23:11;;;;;;;25.30;16.70;;;;;;;;;;5025079;28;20205;-55
2024/02/28 04:25:40;;;;;;;29.83;18.80;;;;;;;;;;5021906;28;20201;-55
2024/02/28 04:28:06;;;;;;;30.77;19.40;;;;;;;;;;5026037;28;20201;-55
2024/02/28 04:30:32;;;;;;;31.13;20.17;;;;;;;;;;5047260;28;20261;-55
2024/02/28 04:32:58;;;;;;;31.80;19.87;;;;;;;;;;5028910;28;20173;-55
2024/02/28 04:35:25;;;;;;;30.10;19.93;;;;;;;;;;5028074;28;20277;-55
2024/02/28 04:37:51;;;;;;;29.80;20.47;;;;;;;;;;5020325;28;20188;-55
2024/02/28 04:40:17;;;;;;;32.60;20.47;;;;;;;;;;5026320;28;20182;-55
2024/02/28 04:42:43;;;;;;;29.90;19.53;;;;;;;;;;5030425;28;20208;-55
2024/02/28 04:45:09;;;;;;;30.47;20.30;;;;;;;;;;5022142;28;20178;-56
2024/02/28 04:47:36;;;;;;;31.00;20.17;;;;;;;;;;5017781;28;20283;-56
2024/02/28 04:50:04;;;;;;;30.37;21.17;;;;;;;;;;5019070;28;20181;-55
2024/02/28 04:52:30;;;;;;;34.30;20.83;;;;;;;;;;5029732;28;20181;-55
2024/02/28 04:54:56;;;;;;;30.47;20.20;;;;;;;;;;5027974;28;20240;-55
2024/02/28 04:57:22;;;;;;;33.23;21.63;;;;;;;;;;5009760;28;20177;-55
2024/02/28 04:59:49;;;;;;;32.03;20.13;;;;;;;;;;5021645;28;20576;-55
2024/02/28 05:02:15;;;;;;;29.53;21.17;;;;;;;;;;5029945;28;20265;-56
2024/02/28 05:04:41;;;;;;;33.50;21.70;;;;;;;;;;5034095;28;20273;-56
2024/02/28 05:07:07;;;;;;;30.97;20.53;;;;;;;;;;5023295;28;20206;-55
2024/02/28 05:09:33;;;;;;;36.80;22.93;;;;;;;;;;5017937;28;20170;-55
2024/02/28 05:11:59;;;;;;;34.30;22.27;;;;;;;;;;5027475;28;20185;-56
2024/02/28 05:14:25;;;;;;;33.47;21.90;;;;;;;;;;5021808;28;20167;-56
2024/02/28 05:16:51;;;;;;;36.37;22.10;;;;;;;;;;5024364;28;20240;-55
2024/02/28 05:19:18;;;;;;;36.63;22.20;;;;;;;;;;5028181;28;20312;-56
2024/02/28 05:21:44;;;;;;;36.47;23.77;;;;;;;;;;5025569;28;20260;-55
2024/02/28 05:24:10;;;;;;;36.60;24.03;;;;;;;;;;5026385;28;20178;-54
2024/02/28 05:26:37;;;;;;;31.83;21.97;;;;;;;;;;5023578;28;20176;-56
2024/02/28 05:29:04;;;;;;;38.33;23.70;;;;;;;;;;5024016;28;20163;-55
2024/02/28 05:31:31;;;;;;;35.70;22.50;;;;;;;;;;5029108;28;20194;-55
2024/02/28 05:33:58;;;;;;;36.87;23.37;;;;;;;;;;5015842;28;20266;-55
2024/02/28 05:36:24;;;;;;;36.43;24.43;;;;;;;;;;5024359;28;20181;-55
2024/02/28 05:38:51;;;;;;;36.83;22.80;;;;;;;;;;5013759;28;20182;-55
2024/02/28 05:41:17;;;;;;;36.13;22.73;;;;;;;;;;5019303;28;20180;-56
2024/02/28 05:43:44;;;;;;;40.03;24.00;;;;;;;;;;5026408;28;20208;-55
2024/02/28 05:46:10;;;;;;;39.43;24.77;;;;;;;;;;5024896;28;20178;-56
2024/02/28 05:48:36;;;;;;;36.60;23.97;;;;;;;;;;5027285;28;20554;-56
2024/02/28 05:51:02;;;;;;;38.40;24.47;;;;;;;;;;5025080;28;20257;-56
2024/02/28 05:53:32;;;;;;;39.70;24.73;;;;;;;;;;5021279;28;20196;-55
2024/02/28 05:55:58;;;;;;;39.63;23.73;;;;;;;;;;5022707;28;20227;-56
2024/02/28 05:58:25;;;;;;;36.83;24.07;;;;;;;;;;5019952;28;20177;-55
2024/02/28 06:00:51;;;;;;;38.07;25.30;;;;;;;;;;5025430;28;20194;-56
2024/02/28 06:03:17;;;;;;;39.13;24.30;;;;;;;;;;5028284;28;20231;-55
2024/02/28 06:05:43;;;;;;;40.80;25.83;;;;;;;;;;5021482;28;20596;-59
2024/02/28 06:08:09;;;;;;;37.73;24.40;;;;;;;;;;5024025;28;20205;-57
2024/02/28 06:10:35;;;;;;;38.40;24.10;;;;;;;;;;5014271;28;20191;-59
2024/02/28 06:13:02;;;;;;;35.20;23.90;;;;;;;;;;5027315;28;20204;-58
2024/02/28 06:15:28;;;;;;;40.20;24.70;;;;;;;;;;5024614;28;20189;-58
2024/02/28 06:17:57;;;;;;;35.43;23.57;;;;;;;;;;5019981;28;20191;-58
2024/02/28 06:20:23;;;;;;;38.20;24.13;;;;;;;;;;5022952;28;20225;-58
2024/02/28 06:22:49;;;;;;;41.60;29.27;;;;;;;;;;5023136;28;20935;-59
2024/02/28 06:25:19;;;;;;;35.70;23.33;;;;;;;;;;5021026;28;20181;-60
2024/02/28 06:27:45;;;;;;;37.03;24.53;;;;;;;;;;5027728;28;20194;-59
2024/02/28 06:30:12;;;;;;;33.67;23.53;;;;;;;;;;5024179;28;20190;-59
2024/02/28 06:32:38;;;;;;;31.27;20.50;;;;;;;;;;5027165;28;20175;-58
2024/02/28 06:35:05;;;;;;;33.77;23.47;;;;;;;;;;5021322;28;20272;-51
2024/02/28 06:37:31;;;;;;;33.00;22.37;;;;;;;;;;5022325;28;20188;-51
2024/02/28 06:39:57;;;;;;;30.30;21.53;;;;;;;;;;5016482;28;20179;-52
2024/02/28 06:42:24;;;;;;;34.97;22.27;;;;;;;;;;5013002;28;20543;-52
2024/02/28 06:44:50;;;;;;;38.30;22.83;;;;;;;;;;5017824;28;20272;-51
2024/02/28 06:47:17;;;;;;;34.20;21.90;;;;;;;;;;5025913;28;20676;-53
2024/02/28 06:49:44;;;;;;;30.30;19.97;;;;;;;;;;5015527;28;20163;-53
2024/02/28 06:52:10;;;;;;;32.40;21.03;;;;;;;;;;5019155;28;20493;-53
2024/02/28 06:54:36;;;;;;;34.43;22.57;;;;;;;;;;5016836;28;20204;-52
2024/02/28 06:57:02;;;;;;;31.80;20.97;;;;;;;;;;5023071;28;20173;-52
2024/02/28 06:59:28;;;;;;;30.67;19.87;;;;;;;;;;5016948;28;20640;-53
2024/02/28 07:01:54;;;;;;;38.13;23.93;;;;;;;;;;5023983;28;20182;-51
2024/02/28 07:04:20;;;;;;;36.70;23.77;;;;;;;;;;5010470;28;20197;-56
2024/02/28 07:06:47;;;;;;;35.27;22.33;;;;;;;;;;5021675;28;20201;-56
2024/02/28 07:09:15;;;;;;;35.40;21.97;;;;;;;;;;5020537;28;20170;-56
2024/02/28 07:11:41;;;;;;;31.93;19.83;;;;;;;;;;5009326;28;20163;-56
2024/02/28 07:14:07;;;;;;;36.53;22.67;;;;;;;;;;5022916;28;20485;-56
2024/02/28 07:16:33;;;;;;;36.73;22.47;;;;;;;;;;5008324;28;20524;-56
2024/02/28 07:19:00;;;;;;;34.43;21.83;;;;;;;;;;5020482;28;20232;-56
2024/02/28 07:21:26;;;;;;;34.83;21.43;;;;;;;;;;5023723;28;20182;-56
2024/02/28 07:23:52;;;;;;;36.30;22.47;;;;;;;;;;5022377;28;20190;-56
2024/02/28 07:26:18;;;;;;;38.20;22.63;;;;;;;;;;5019895;28;20177;-56
2024/02/28 07:28:49;;;;;;;36.90;22.97;;;;;;;;;;5027816;28;20202;-56
2024/02/28 07:31:19;;;;;;;38.27;23.53;;;;;;;;;;5025217;28;20166;-56
2024/02/28 07:33:45;;;;;;;42.03;24.00;;;;;;;;;;5030882;28;20269;-56
2024/02/28 07:36:11;;;;;;;39.37;23.80;;;;;;;;;;5028491;28;20174;-56
2024/02/28 07:38:37;;;;;;;40.60;23.93;;;;;;;;;;5026035;28;20626;-56
2024/02/28 07:41:04;;;;;;;38.90;23.17;;;;;;;;;;5022701;28;20186;-56
2024/02/28 07:43:32;;;;;;;40.63;24.93;;;;;;;;;;5023155;28;20891;-59
2024/02/28 07:45:58;;;;;;;44.87;25.10;;;;;;;;;;5029701;28;20174;-57
2024/02/28 07:48:25;;;;;;;38.07;23.27;;;;;;;;;;5021539;28;20220;-56
2024/02/28 07:50:51;;;;;;;42.90;24.60;;;;;;;;;;5019700;28;20187;-59
2024/02/28 07:53:21;;;;;;;41.33;23.87;;;;;;;;;;5016793;28;20174;-59
2024/02/28 07:55:47;;;;;;;48.43;26.40;;;;;;;;;;5028782;28;20208;-55
2024/02/28 07:58:13;;;;;;;43.53;24.63;;;;;;;;;;5022096;28;20567;-55
2024/02/28 08:00:39;;;;;;;46.50;27.00;;;;;;;;;;5024286;28;20217;-55
2024/02/28 08:03:05;;;;;;;45.67;25.63;;;;;;;;;;5016358;28;20198;-55
2024/02/28 08:05:35;;;;;;;43.20;23.93;;;;;;;;;;5028809;28;20201;-55
2024/02/28 08:08:01;;;;;;;40.20;22.77;;;;;;;;;;5028819;28;20677;-55
2024/02/28 08:10:27;;;;;;;43.30;24.70;;;;;;;;;;5023521;28;20255;-55
2024/02/28 08:12:53;;;;;;;41.47;23.57;;;;;;;;;;5021180;28;20545;-55
2024/02/28 08:15:19;;;;;;;48.73;25.10;;;;;;;;;;5020667;28;20171;-55
2024/02/28 08:17:45;;;;;;;48.80;24.00;;;;;;;;;;5025547;28;20174;-55
2024/02/28 08:20:11;;;;;;;49.13;25.20;;;;;;;;;;5021168;28;20763;-55
2024/02/28 08:22:37;;;;;;;44.00;24.93;;;;;;;;;;5014131;28;20565;-56
2024/02/28 08:25:04;;;;;;;44.27;24.30;;;;;;;;;;5020376;28;20189;-55
2024/02/28 08:27:30;;;;;;;46.17;25.33;;;;;;;;;;5027899;28;20260;-55
2024/02/28 08:29:56;;;;;;;47.97;24.83;;;;;;;;;;5025858;28;20166;-55
2024/02/28 08:32:22;;;;;;;44.13;24.67;;;;;;;;;;5019967;28;20837;-55
2024/02/28 08:34:49;;;;;;;49.80;25.57;;;;;;;;;;5025062;28;20193;-57
2024/02/28 08:37:15;;;;;;;46.47;25.57;;;;;;;;;;5027874;28;20296;-55
2024/02/28 08:39:41;;;;;;;47.63;26.23;;;;;;;;;;5020808;28;20181;-55
2024/02/28 08:42:07;;;;;;;46.00;25.83;;;;;;;;;;5016743;28;20209;-55
2024/02/28 08:44:33;;;;;;;45.20;25.33;;;;;;;;;;5020129;28;20181;-56
2024/02/28 08:46:59;;;;;;;42.73;24.70;;;;;;;;;;5021324;28;20178;-55
2024/02/28 08:49:26;;;;;;;44.37;25.03;;;;;;;;;;5023533;28;20185;-55
2024/02/28 08:51:52;;;;;;;44.40;24.63;;;;;;;;;;5027295;28;20177;-55
2024/02/28 08:54:18;;;;;;;50.67;26.63;;;;;;;;;;5027036;28;20189;-56
2024/02/28 08:56:44;;;;;;;43.67;25.30;;;;;;;;;;5019053;28;20713;-56
2024/02/28 08:59:10;;;;;;;43.27;24.67;;;;;;;;;;5026850;28;20170;-56
2024/02/28 09:01:36;;;;;;;42.47;23.47;;;;;;;;;;5021757;28;20178;-56
2024/02/28 09:04:03;;;;;;;44.33;24.43;;;;;;;;;;5025948;28;20186;-56
2024/02/28 09:06:29;;;;;;;44.80;25.17;;;;;;;;;;5022338;28;20186;-56
2024/02/28 09:08:55;;;;;;;47.47;24.40;;;;;;;;;;5026718;28;20217;-56
2024/02/28 09:11:22;;;;;;;41.50;23.97;;;;;;;;;;5019230;28;20531;-56
2024/02/28 09:13:50;;;;;;;46.33;24.57;;;;;;;;;;5015402;28;20262;-58
2024/02/28 09:16:16;;;;;;;45.80;23.53;;;;;;;;;;5024935;28;20261;-53
2024/02/28 09:18:42;;;;;;;43.93;22.90;;;;;;;;;;5027423;28;20234;-52
2024/02/28 09:21:09;;;;;;;40.23;23.17;;;;;;;;;;5021835;28;20698;-53
2024/02/28 09:23:35;;;;;;;44.00;24.20;;;;;;;;;;5022921;28;20181;-53
2024/02/28 09:26:04;;;;;;;42.27;23.70;;;;;;;;;;5016746;28;20170;-52
2024/02/28 09:28:30;;;;;;;46.67;25.93;;;;;;;;;;5026157;28;20240;-53
2024/02/28 09:30:57;;;;;;;42.73;23.00;;;;;;;;;;5027702;28;20543;-52
2024/02/28 09:33:23;;;;;;;41.30;23.13;;;;;;;;;;5025546;28;20178;-54
2024/02/28 09:35:49;;;;;;;42.63;23.30;;;;;;;;;;5016672;28;20235;-53
2024/02/28 09:38:15;;;;;;;41.20;22.23;;;;;;;;;;5020827;28;20187;-52
2024/02/28 09:40:42;;;;;;;44.43;24.70;;;;;;;;;;5022107;28;20272;-53
2024/02/28 09:43:12;;;;;;;41.70;23.63;;;;;;;;;;5018914;28;20672;-51
2024/02/28 09:45:38;;;;;;;40.43;23.63;;;;;;;;;;5014188;28;20174;-52
2024/02/28 09:48:04;;;;;;;47.43;25.87;;;;;;;;;;5023142;28;20570;-55
2024/02/28 09:50:33;;;;;;;42.87;23.97;;;;;;;;;;5024378;28;20249;-51
2024/02/28 09:52:59;;;;;;;41.13;22.53;;;;;;;;;;5020780;28;20185;-53
2024/02/28 09:55:25;;;;;;;41.93;23.80;;;;;;;;;;5015209;28;20763;-52
2024/02/28 09:57:53;;;;;;;44.40;23.77;;;;;;;;;;5020045;28;20625;-53
2024/02/28 10:00:20;;;;;;;44.17;24.30;;;;;;;;;;5019655;28;20262;-56
2024/02/28 10:02:48;;;;;;;45.23;23.57;;;;;;;;;;5020297;28;20244;-54
2024/02/28 10:05:15;;;;;;;41.20;22.73;;;;;;;;;;5021628;28;20189;-54
2024/02/28 10:07:41;;;;;;;37.40;22.17;;;;;;;;;;5023919;28;20204;-52
2024/02/28 10:10:10;;;;;;;40.27;23.03;;;;;;;;;;5016931;28;20169;-53
2024/02/28 10:12:41;;;;;;;44.30;23.83;;;;;;;;;;5022125;28;20224;-52
2024/02/28 10:15:07;;;;;;;40.13;23.73;;;;;;;;;;5021172;28;20169;-53
2024/02/28 10:17:33;;;;;;;39.47;23.10;;;;;;;;;;5023520;28;20633;-53
2024/02/28 10:19:59;;;;;;;44.83;24.10;;;;;;;;;;5023485;28;20291;-53
2024/02/28 10:22:25;;;;;;;37.30;21.13;;;;;;;;;;5018954;28;20517;-52
2024/02/28 10:24:57;;;;;;;44.30;24.70;;;;;;;;;;5019252;28;20189;-59
2024/02/28 10:27:23;;;;;;;40.10;24.30;;;;;;;;;;5027695;28;20193;-59
2024/02/28 10:29:49;;;;;;;40.73;22.80;;;;;;;;;;5021796;28;20316;-57
2024/02/28 10:32:15;;;;;;;35.73;22.20;;;;;;;;;;5025791;28;20216;-59
2024/02/28 10:34:42;;;;;;;41.13;22.60;;;;;;;;;;5022386;28;20190;-59
2024/02/28 10:37:08;;;;;;;35.73;20.40;;;;;;;;;;5013949;28;20610;-59
2024/02/28 10:55:25;;;;;;;37.93;21.40;;;;;;;;;;5023023;28;20255;-57
2024/02/28 10:57:56;;;;;;;38.73;22.27;;;;;;;;;;5032400;28;20185;-58
2024/02/28 11:00:22;;;;;;;36.47;20.70;;;;;;;;;;5027884;28;20231;-57
2024/02/28 11:02:49;;;;;;;36.40;21.20;;;;;;;;;;5023995;28;20185;-59
2024/02/28 11:05:15;;;;;;;36.63;22.07;;;;;;;;;;5017728;28;20178;-58
2024/02/28 11:07:43;;;;;;;37.07;20.63;;;;;;;;;;5028407;28;20689;-59
2024/02/28 11:10:10;;;;;;;34.13;22.07;;;;;;;;;;5027536;28;20404;-59
2024/02/28 11:12:37;;;;;;;35.73;20.77;;;;;;;;;;5027928;28;20272;-58
2024/02/28 11:15:06;;;;;;;35.73;20.80;;;;;;;;;;5025862;28;20190;-59
2024/02/28 11:17:33;;;;;;;36.87;21.87;;;;;;;;;;5017096;28;20663;-59
2024/02/28 11:19:59;;;;;;;36.23;20.87;;;;;;;;;;5027005;28;20268;-59
2024/02/28 11:22:29;;;;;;;33.73;20.33;;;;;;;;;;5026073;28;20305;-58
2024/02/28 11:24:55;;;;;;;33.03;20.27;;;;;;;;;;5025050;28;20642;-58
2024/02/28 11:27:22;;;;;;;33.37;20.20;;;;;;;;;;5028004;28;20205;-59
2024/02/28 11:29:49;;;;;;;33.77;21.07;;;;;;;;;;5027597;28;20173;-58
2024/02/28 11:32:15;;;;;;;34.63;19.27;;;;;;;;;;5028057;28;20177;-59
2024/02/28 11:34:42;;;;;;;35.43;20.47;;;;;;;;;;5027288;28;20208;-55
2024/02/28 11:37:09;;;;;;;33.00;19.07;;;;;;;;;;5027808;28;20534;-55
2024/02/28 11:39:36;;;;;;;34.17;20.30;;;;;;;;;;5026511;28;20169;-55
2024/02/28 11:42:12;;;;;;;31.20;20.70;;;;;;;;;;5027543;28;20343;-55
2024/02/28 11:44:38;;;;;;;31.80;19.43;;;;;;;;;;5027424;28;20269;-55
2024/02/28 11:47:04;;;;;;;33.67;19.47;;;;;;;;;;5027439;28;20810;-56
2024/02/28 11:49:33;;;;;;;33.90;20.53;;;;;;;;;;5027503;28;20268;-56
2024/02/28 11:51:59;;;;;;;31.87;20.20;;;;;;;;;;5033893;28;20534;-56
2024/02/28 11:54:25;;;;;;;33.20;20.00;;;;;;;;;;5033409;28;20171;-56
2024/02/28 11:56:51;;;;;;;32.57;20.33;;;;;;;;;;5027195;28;20166;-58
2024/02/28 11:59:18;;;;;;;31.03;20.40;;;;;;;;;;5027861;28;20177;-58
2024/02/28 12:01:44;;;;;;;28.97;18.10;;;;;;;;;;5026652;28;20223;-60
2024/02/28 12:04:10;;;;;;;31.90;19.10;;;;;;;;;;5027417;28;20660;-59
2024/02/28 12:06:37;;;;;;;32.93;20.77;;;;;;;;;;5026272;28;20204;-59
2024/02/28 12:09:03;;;;;;;30.93;20.30;;;;;;;;;;5024985;28;20201;-59
2024/02/28 12:11:30;;;;;;;26.47;17.90;;;;;;;;;;5031505;28;20178;-59
2024/02/28 12:13:56;;;;;;;30.03;19.77;;;;;;;;;;5024342;28;20194;-60
2024/02/28 12:16:23;;;;;;;34.30;20.03;;;;;;;;;;5027874;28;20173;-58
2024/02/28 12:18:49;;;;;;;27.13;17.87;;;;;;;;;;5030521;28;20309;-58
2024/02/28 12:21:15;;;;;;;29.10;17.80;;;;;;;;;;5031121;28;20268;-58
2024/02/28 12:23:41;;;;;;;27.77;18.07;;;;;;;;;;5019287;28;20181;-57
2024/02/28 12:26:07;;;;;;;33.47;20.60;;;;;;;;;;5030126;28;20177;-60
2024/02/28 12:28:34;;;;;;;25.93;17.93;;;;;;;;;;5030997;28;20531;-60
2024/02/28 12:31:00;;;;;;;25.97;16.90;;;;;;;;;;5020070;28;20737;-58
2024/02/28 12:33:26;;;;;;;27.43;18.13;;;;;;;;;;5030243;28;20645;-59
2024/02/28 12:35:52;;;;;;;23.47;17.20;;;;;;;;;;5030623;28;20255;-59
2024/02/28 12:38:19;;;;;;;28.73;18.97;;;;;;;;;;5029302;28;20181;-59
2024/02/28 12:40:45;;;;;;;24.93;17.33;;;;;;;;;;5028187;28;20250;-59
2024/02/28 12:43:11;;;;;;;28.63;17.53;;;;;;;;;;5028514;28;20356;-58
2024/02/28 12:45:37;;;;;;;29.07;16.60;;;;;;;;;;5028902;28;20206;-58
2024/02/28 12:48:05;;;;;;;24.70;16.53;;;;;;;;;;5027458;28;20229;-59
2024/02/28 12:50:33;;;;;;;23.33;16.30;;;;;;;;;;5028849;28;20162;-60
2024/02/28 12:53:00;;;;;;;28.63;17.57;;;;;;;;;;5028858;28;20590;-59
2024/02/28 12:55:26;;;;;;;25.73;17.83;;;;;;;;;;5029310;28;20556;-59
2024/02/28 12:57:52;;;;;;;22.57;16.43;;;;;;;;;;5029855;28;20204;-58
2024/02/28 13:00:18;;;;;;;25.03;16.73;;;;;;;;;;5032062;28;20190;-59
2024/02/28 13:02:45;;;;;;;23.83;17.40;;;;;;;;;;5029563;28;20186;-59
2024/02/28 13:05:15;;;;;;;24.77;16.40;;;;;;;;;;5029793;28;20185;-60
2024/02/28 13:07:41;;;;;;;26.47;17.90;;;;;;;;;;5029898;28;20669;-59
2024/02/28 13:10:08;;;;;;;24.00;16.00;;;;;;;;;;5028747;28;20853;-60
2024/02/28 13:12:34;;;;;;;23.50;16.63;;;;;;;;;;5035528;28;20205;-62
2024/02/28 13:15:00;;;;;;;21.53;15.00;;;;;;;;;;5029459;28;20589;-57
2024/02/28 13:17:26;;;;;;;23.20;16.20;;;;;;;;;;5029823;28;20645;-57
2024/02/28 13:19:52;;;;;;;22.93;16.40;;;;;;;;;;5029430;28;20313;-57
2024/02/28 13:22:18;;;;;;;23.10;16.17;;;;;;;;;;5030019;28;20212;-57
2024/02/28 13:24:44;;;;;;;21.57;15.40;;;;;;;;;;5029034;28;20527;-57
2024/02/28 13:27:10;;;;;;;23.40;16.00;;;;;;;;;;5029531;28;20281;-57
2024/02/28 13:29:36;;;;;;;25.30;15.73;;;;;;;;;;5024916;28;20300;-57
2024/02/28 13:32:03;;;;;;;23.83;15.10;;;;;;;;;;5025892;28;20265;-57
2024/02/28 13:34:29;;;;;;;22.63;14.83;;;;;;;;;;5023473;28;20277;-57
2024/02/28 13:36:55;;;;;;;20.90;14.53;;;;;;;;;;5029665;28;20174;-56
2024/02/28 13:39:23;;;;;;;19.70;14.37;;;;;;;;;;5027995;28;20201;-56
2024/02/28 13:41:51;;;;;;;20.47;14.13;;;;;;;;;;5026049;28;20248;-56
2024/02/28 13:44:17;;;;;;;21.00;14.23;;;;;;;;;;5021416;28;20633;-57
2024/02/28 13:46:44;;;;;;;24.37;15.83;;;;;;;;;;5027017;28;20591;-56
2024/02/28 13:49:10;;;;;;;21.27;15.10;;;;;;;;;;5028685;28;20202;-57
2024/02/28 13:51:36;;;;;;;19.87;14.27;;;;;;;;;;5027788;28;20253;-57
2024/02/28 13:54:02;;;;;;;24.53;14.57;;;;;;;;;;5023581;28;20182;-57
2024/02/28 13:56:30;;;;;;;20.80;14.77;;;;;;;;;;5028158;28;20184;-57
2024/02/28 13:58:56;;;;;;;24.13;14.53;;;;;;;;;;5028504;28;20289;-57
2024/02/28 14:01:22;;;;;;;19.10;13.47;;;;;;;;;;5019455;28;20186;-57
2024/02/28 14:03:48;;;;;;;21.37;14.07;;;;;;;;;;5027205;28;20913;-57
2024/02/28 14:06:14;;;;;;;20.43;14.90;;;;;;;;;;5029162;28;20170;-57
2024/02/28 14:08:40;;;;;;;19.03;13.53;;;;;;;;;;5028592;28;20189;-57
2024/02/28 14:11:06;;;;;;;18.50;13.50;;;;;;;;;;5028077;28;20166;-57
2024/02/28 14:13:33;;;;;;;18.73;13.77;;;;;;;;;;5028943;28;20634;-56
2024/02/28 14:15:59;;;;;;;20.13;13.40;;;;;;;;;;5017242;28;20189;-56
2024/02/28 14:18:25;;;;;;;19.43;13.83;;;;;;;;;;5007840;28;20194;-56
2024/02/28 14:20:51;;;;;;;22.43;14.20;;;;;;;;;;5017207;28;20440;-56
2024/02/28 14:23:17;;;;;;;18.23;13.67;;;;;;;;;;5015284;28;20675;-56
2024/02/28 14:25:43;;;;;;;20.33;13.50;;;;;;;;;;5026846;28;20220;-56
2024/02/28 14:28:09;;;;;;;18.47;12.77;;;;;;;;;;5026246;28;20209;-57